Time;durP1;ratioP1;P1;durP2;ratioP2;P2;SDS_P1;SDS_P2;PMS_P1;PMS_P2;Temp;Humidity;BMP_temperature;BMP_pressure;BME280_temperature;BME280_humidity;BME280_pressure;Samples;Min_cycle;Max_cycle;Signal;HPM_P1;HPM_P2
2022/03/08 00:01:04;;;;;;;;;;;17.50;51.10;;;;;;4997311;28;20346;-52
2022/03/08 00:03:29;;;;;;;;;;;17.50;51.10;;;;;;5002269;28;19924;-50
2022/03/08 00:05:55;;;;;;;;;;;17.40;51.10;;;;;;4997238;28;19917;-49
2022/03/08 00:08:20;;;;;;;;;;;17.40;51.10;;;;;;4997397;28;19921;-49
2022/03/08 00:10:46;;;;;;;;;;;17.40;51.00;;;;;;4995451;28;19913;-50
2022/03/08 00:13:11;;;;;;;;;;;17.40;51.10;;;;;;4997341;28;19930;-49
2022/03/08 00:15:36;;;;;;;;;;;17.40;51.10;;;;;;4998011;28;19936;-51
2022/03/08 00:18:02;;;;;;;;;;;17.40;51.20;;;;;;4989711;28;20421;-50
2022/03/08 00:20:27;;;;;;;;;;;17.40;51.20;;;;;;4997180;28;19917;-51
2022/03/08 00:22:53;;;;;;;;;;;17.40;51.10;;;;;;4996411;28;19917;-53
2022/03/08 00:25:18;;;;;;;;;;;17.30;51.00;;;;;;4997831;28;20536;-51
2022/03/08 00:27:45;;;;;;;;;;;17.40;51.00;;;;;;4998895;28;20008;-51
2022/03/08 00:30:11;;;;;;;;;;;17.40;51.00;;;;;;5000201;28;20064;-50
2022/03/08 00:32:37;;;;;;;;;;;17.30;51.00;;;;;;4987067;28;20466;-51
2022/03/08 00:35:02;;;;;;;;;;;17.30;51.00;;;;;;4992718;28;20139;-53
2022/03/08 00:37:28;;;;;;;;;;;17.30;51.10;;;;;;4996102;28;20636;-50
2022/03/08 00:39:53;;;;;;;;;;;17.30;51.10;;;;;;4996019;28;19918;-50
2022/03/08 00:42:20;;;;;;;;;;;17.20;51.20;;;;;;4968910;28;20334;-50
2022/03/08 00:44:45;;;;;;;;;;;17.20;51.10;;;;;;5032129;22;20018;-59
2022/03/08 00:47:11;;;;;;;;;;;17.20;51.00;;;;;;5021385;28;19925;-58
2022/03/08 00:49:36;;;;;;;;;;;17.20;51.00;;;;;;5020855;28;19924;-53
2022/03/08 00:52:02;;;;;;;;;;;17.20;51.20;;;;;;5020809;28;19971;-55
2022/03/08 00:54:27;;;;;;;;;;;17.20;51.10;;;;;;5009382;28;19920;-58
2022/03/08 00:56:53;;;;;;;;;;;17.20;51.00;;;;;;5020527;28;19920;-56
2022/03/08 00:59:18;;;;;;;;;;;17.20;50.90;;;;;;5019692;28;19924;-53
2022/03/08 01:01:44;;;;;;;;;;;17.20;51.10;;;;;;5020260;28;20393;-53
2022/03/08 01:04:09;;;;;;;;;;;17.20;51.20;;;;;;5020961;28;19913;-53
2022/03/08 01:06:35;;;;;;;;;;;17.10;51.10;;;;;;5020332;28;19917;-56
2022/03/08 01:09:01;;;;;;;;;;;17.20;51.10;;;;;;5019401;28;20004;-59
2022/03/08 01:11:26;;;;;;;;;;;17.20;51.00;;;;;;5019234;28;19940;-59
2022/03/08 01:13:52;;;;;;;;;;;17.20;50.90;;;;;;5020727;28;19948;-55
2022/03/08 01:16:17;;;;;;;;;;;17.20;51.00;;;;;;5020498;28;19918;-53
2022/03/08 01:18:43;;;;;;;;;;;17.10;51.00;;;;;;5020138;28;19913;-53
2022/03/08 01:21:11;;;;;;;;;;;17.10;51.00;;;;;;5021066;28;19917;-56
2022/03/08 01:23:37;;;;;;;;;;;17.10;51.00;;;;;;5020529;28;20384;-55
2022/03/08 01:26:02;;;;;;;;;;;17.10;50.90;;;;;;5020253;28;19917;-57
2022/03/08 01:28:27;;;;;;;;;;;17.20;50.90;;;;;;5020071;28;20349;-53
2022/03/08 01:30:53;;;;;;;;;;;17.20;50.80;;;;;;5020775;28;19924;-59
2022/03/08 01:33:18;;;;;;;;;;;17.10;50.90;;;;;;5020775;28;19924;-57
2022/03/08 01:35:44;;;;;;;;;;;17.20;50.90;;;;;;5019865;28;20445;-55
2022/03/08 01:38:09;;;;;;;;;;;17.20;50.80;;;;;;5019455;28;19917;-59
2022/03/08 01:40:35;;;;;;;;;;;17.10;50.80;;;;;;5006926;28;19917;-56
2022/03/08 01:43:00;;;;;;;;;;;17.10;50.70;;;;;;5020393;28;19921;-56
2022/03/08 01:45:26;;;;;;;;;;;17.10;50.80;;;;;;5020483;28;20495;-56
2022/03/08 01:47:51;;;;;;;;;;;17.10;50.70;;;;;;5020719;28;19921;-57
2022/03/08 01:50:17;;;;;;;;;;;17.10;50.70;;;;;;5025305;28;19921;-53
2022/03/08 01:52:43;;;;;;;;;;;17.10;50.80;;;;;;5019410;28;20094;-57
2022/03/08 01:55:08;;;;;;;;;;;17.10;50.80;;;;;;5020409;28;19955;-58
2022/03/08 01:57:34;;;;;;;;;;;17.10;50.70;;;;;;5002393;28;19925;-57
2022/03/08 01:59:59;;;;;;;;;;;17.10;50.80;;;;;;5019274;28;19921;-55
2022/03/08 02:02:25;;;;;;;;;;;17.10;50.80;;;;;;5020490;28;19920;-56
2022/03/08 02:04:50;;;;;;;;;;;17.00;50.90;;;;;;5020241;28;20336;-51
2022/03/08 02:07:16;;;;;;;;;;;17.00;51.00;;;;;;5020576;28;19920;-56
2022/03/08 02:09:41;;;;;;;;;;;17.00;51.00;;;;;;5019634;28;19917;-58
2022/03/08 02:12:07;;;;;;;;;;;16.90;51.10;;;;;;5021136;28;19921;-58
2022/03/08 02:14:33;;;;;;;;;;;16.90;51.10;;;;;;5019136;28;19943;-54
2022/03/08 02:16:58;;;;;;;;;;;16.90;51.20;;;;;;5020354;28;20282;-57
2022/03/08 02:19:24;;;;;;;;;;;17.00;51.10;;;;;;5019634;28;19943;-56
2022/03/08 02:21:50;;;;;;;;;;;16.90;51.10;;;;;;5019659;28;19913;-58
2022/03/08 02:24:15;;;;;;;;;;;16.90;50.90;;;;;;5020159;28;19924;-59
2022/03/08 02:26:41;;;;;;;;;;;16.90;51.00;;;;;;5020362;28;19917;-58
2022/03/08 02:29:08;;;;;;;;;;;16.80;50.80;;;;;;5018617;28;19923;-60
2022/03/08 02:31:34;;;;;;;;;;;16.80;50.90;;;;;;5020119;28;20000;-54
2022/03/08 02:33:59;;;;;;;;;;;16.80;50.70;;;;;;5019152;28;20481;-54
2022/03/08 02:36:25;;;;;;;;;;;16.70;50.80;;;;;;5020461;28;19918;-53
2022/03/08 02:38:50;;;;;;;;;;;16.70;50.90;;;;;;5018868;28;20123;-59
2022/03/08 02:41:16;;;;;;;;;;;16.70;51.10;;;;;;5019707;28;20043;-56
2022/03/08 02:43:41;;;;;;;;;;;16.60;51.10;;;;;;5020759;28;19947;-55
2022/03/08 02:46:07;;;;;;;;;;;16.60;51.10;;;;;;5019927;28;19932;-59
2022/03/08 02:48:32;;;;;;;;;;;16.60;50.90;;;;;;5020031;28;19921;-57
2022/03/08 02:50:57;;;;;;;;;;;16.70;50.80;;;;;;5019996;28;19920;-52
2022/03/08 02:53:23;;;;;;;;;;;16.60;51.00;;;;;;5019967;28;19914;-56
2022/03/08 02:55:48;;;;;;;;;;;16.60;51.20;;;;;;5020115;28;19918;-52
2022/03/08 02:58:14;;;;;;;;;;;16.60;51.30;;;;;;5018550;28;19917;-56
2022/03/08 03:00:39;;;;;;;;;;;16.70;51.30;;;;;;5019596;28;19921;-56
2022/03/08 03:03:05;;;;;;;;;;;16.70;51.30;;;;;;5019141;28;19913;-50
2022/03/08 03:05:30;;;;;;;;;;;16.70;51.10;;;;;;5019267;28;20004;-52
2022/03/08 03:07:56;;;;;;;;;;;16.80;50.90;;;;;;5020175;28;19913;-53
2022/03/08 03:10:21;;;;;;;;;;;16.90;50.90;;;;;;5022096;28;20378;-60
2022/03/08 03:12:47;;;;;;;;;;;16.90;50.70;;;;;;5011093;28;19913;-53
2022/03/08 03:15:13;;;;;;;;;;;16.90;50.70;;;;;;5009846;28;19921;-55
2022/03/08 03:17:38;;;;;;;;;;;17.00;50.40;;;;;;5021182;28;19947;-53
2022/03/08 03:20:04;;;;;;;;;;;17.00;50.40;;;;;;5022675;28;19931;-57
2022/03/08 03:22:30;;;;;;;;;;;17.00;50.30;;;;;;5023373;28;20337;-55
2022/03/08 03:24:55;;;;;;;;;;;17.00;50.20;;;;;;5023247;28;19921;-51
2022/03/08 03:27:21;;;;;;;;;;;17.00;50.20;;;;;;5022845;28;20297;-55
2022/03/08 03:29:47;;;;;;;;;;;17.00;50.20;;;;;;5022646;28;19917;-55
2022/03/08 03:32:12;;;;;;;;;;;17.10;50.10;;;;;;5016319;28;19926;-60
2022/03/08 03:34:38;;;;;;;;;;;17.00;50.00;;;;;;5023508;28;19913;-57
2022/03/08 03:37:03;;;;;;;;;;;17.00;49.90;;;;;;5023104;28;19928;-54
2022/03/08 03:39:29;;;;;;;;;;;17.00;49.90;;;;;;5022532;28;19971;-55
2022/03/08 03:41:54;;;;;;;;;;;17.10;50.00;;;;;;5009658;28;20750;-56
2022/03/08 03:44:20;;;;;;;;;;;17.10;49.70;;;;;;5022669;28;19925;-50
2022/03/08 03:46:45;;;;;;;;;;;17.10;49.70;;;;;;5024444;28;19913;-59
2022/03/08 03:49:11;;;;;;;;;;;17.10;49.70;;;;;;5022255;28;20582;-52
2022/03/08 03:51:36;;;;;;;;;;;17.10;49.60;;;;;;5022819;28;19917;-52
2022/03/08 03:54:01;;;;;;;;;;;17.10;49.60;;;;;;5023039;28;19914;-56
2022/03/08 03:56:27;;;;;;;;;;;17.20;49.40;;;;;;5022349;28;19913;-56
2022/03/08 03:58:52;;;;;;;;;;;17.20;49.50;;;;;;5021802;28;20533;-55
2022/03/08 04:01:18;;;;;;;;;;;17.20;49.40;;;;;;5022482;28;19913;-56
2022/03/08 04:03:43;;;;;;;;;;;17.10;49.30;;;;;;5021310;28;19914;-52
2022/03/08 04:06:09;;;;;;;;;;;17.20;49.30;;;;;;5023144;28;19913;-58
2022/03/08 04:08:34;;;;;;;;;;;17.20;49.20;;;;;;5017728;28;19921;-51
2022/03/08 04:11:00;;;;;;;;;;;17.20;49.10;;;;;;5021942;28;20000;-49
2022/03/08 04:13:25;;;;;;;;;;;17.20;49.10;;;;;;5021288;28;20283;-56
2022/03/08 04:15:52;;;;;;;;;;;17.20;49.10;;;;;;5021568;28;19929;-55
2022/03/08 04:18:18;;;;;;;;;;;17.20;49.10;;;;;;5022443;28;19917;-53
2022/03/08 04:20:43;;;;;;;;;;;17.20;49.10;;;;;;5021948;28;20024;-58
2022/03/08 04:23:08;;;;;;;;;;;17.20;49.00;;;;;;5022537;28;19944;-53
2022/03/08 04:25:34;;;;;;;;;;;17.20;49.10;;;;;;5022240;28;19913;-52
2022/03/08 04:28:01;;;;;;;;;;;17.20;49.00;;;;;;5021262;28;19968;-52
2022/03/08 04:30:27;;;;;;;;;;;17.20;49.00;;;;;;5003557;28;19917;-49
2022/03/08 04:32:52;;;;;;;;;;;17.20;49.10;;;;;;5022305;28;19913;-51
2022/03/08 04:35:18;;;;;;;;;;;17.20;49.10;;;;;;5022350;28;20398;-58
2022/03/08 04:37:43;;;;;;;;;;;17.20;49.30;;;;;;5022110;28;19991;-53
2022/03/08 04:40:09;;;;;;;;;;;17.10;49.20;;;;;;5022849;28;20049;-55
2022/03/08 04:42:35;;;;;;;;;;;17.20;49.30;;;;;;5021247;28;19920;-59
2022/03/08 04:45:00;;;;;;;;;;;17.20;49.20;;;;;;5021558;28;19921;-61
2022/03/08 04:47:25;;;;;;;;;;;17.20;49.30;;;;;;5021336;28;20417;-55
2022/03/08 04:49:51;;;;;;;;;;;17.20;49.30;;;;;;5021712;28;19936;-50
2022/03/08 04:52:16;;;;;;;;;;;17.30;49.30;;;;;;5021566;28;19919;-58
2022/03/08 04:54:42;;;;;;;;;;;17.20;49.20;;;;;;5022041;28;19920;-52
2022/03/08 04:57:07;;;;;;;;;;;17.20;49.30;;;;;;5021543;28;20370;-54
2022/03/08 04:59:33;;;;;;;;;;;17.20;49.20;;;;;;5018877;28;20344;-53
2022/03/08 05:01:58;;;;;;;;;;;17.20;49.30;;;;;;5021311;28;20050;-54
2022/03/08 05:04:23;;;;;;;;;;;17.20;49.40;;;;;;5021904;28;19913;-52
2022/03/08 05:06:49;;;;;;;;;;;17.20;49.40;;;;;;5022035;28;20367;-54
2022/03/08 05:09:14;;;;;;;;;;;17.20;49.30;;;;;;5020558;28;20197;-56
2022/03/08 05:11:40;;;;;;;;;;;17.20;49.30;;;;;;5021601;28;19921;-56
2022/03/08 05:14:05;;;;;;;;;;;17.20;49.30;;;;;;5020778;28;19913;-58
2022/03/08 05:16:31;;;;;;;;;;;17.30;49.30;;;;;;5020828;28;20454;-59
2022/03/08 05:18:57;;;;;;;;;;;17.30;49.30;;;;;;5020367;28;19913;-52
2022/03/08 05:21:22;;;;;;;;;;;17.20;49.20;;;;;;5021217;28;19913;-51
2022/03/08 05:23:48;;;;;;;;;;;17.20;49.20;;;;;;5020578;28;20030;-54
2022/03/08 05:26:13;;;;;;;;;;;17.30;49.30;;;;;;5021141;28;20298;-59
2022/03/08 05:28:39;;;;;;;;;;;17.20;49.30;;;;;;5019956;28;20610;-59
2022/03/08 05:31:04;;;;;;;;;;;17.30;49.30;;;;;;5020485;28;19913;-54
2022/03/08 05:33:30;;;;;;;;;;;17.20;49.50;;;;;;5020492;28;19914;-57
2022/03/08 05:35:55;;;;;;;;;;;17.20;49.40;;;;;;5021517;28;19917;-60
2022/03/08 05:38:21;;;;;;;;;;;17.30;49.50;;;;;;5020718;28;20604;-56
2022/03/08 05:40:46;;;;;;;;;;;17.30;49.50;;;;;;5019641;28;19928;-57
2022/03/08 05:43:12;;;;;;;;;;;17.30;49.50;;;;;;5020520;28;19969;-59
2022/03/08 05:45:37;;;;;;;;;;;17.30;49.60;;;;;;5019998;28;19924;-52
2022/03/08 05:48:03;;;;;;;;;;;17.40;49.50;;;;;;5020475;28;19921;-57
2022/03/08 05:50:29;;;;;;;;;;;17.30;49.70;;;;;;5019249;28;19968;-50
2022/03/08 05:52:54;;;;;;;;;;;17.30;50.00;;;;;;5020365;28;20371;-60
2022/03/08 05:55:20;;;;;;;;;;;17.30;50.60;;;;;;5020359;28;19917;-58
2022/03/08 05:57:45;;;;;;;;;;;17.50;49.70;;;;;;5020684;28;19971;-48
2022/03/08 06:00:11;;;;;;;;;;;17.50;49.80;;;;;;5019373;28;19944;-54
2022/03/08 06:02:36;;;;;;;;;;;17.50;49.60;;;;;;5019495;28;19978;-54
2022/03/08 06:05:02;;;;;;;;;;;17.60;49.70;;;;;;5020331;28;20370;-53
2022/03/08 06:07:27;;;;;;;;;;;17.60;49.60;;;;;;5019966;28;19917;-54
2022/03/08 06:09:53;;;;;;;;;;;17.60;49.70;;;;;;5019182;28;19920;-56
2022/03/08 06:12:18;;;;;;;;;;;17.60;49.80;;;;;;5020152;28;19979;-58
2022/03/08 06:14:44;;;;;;;;;;;17.60;49.80;;;;;;5020812;28;19913;-54
2022/03/08 06:17:09;;;;;;;;;;;17.50;49.90;;;;;;5020380;28;19913;-58
2022/03/08 06:19:34;;;;;;;;;;;17.50;49.90;;;;;;5019621;28;19923;-56
2022/03/08 06:22:00;;;;;;;;;;;17.60;49.90;;;;;;5019970;28;19935;-52
2022/03/08 06:24:25;;;;;;;;;;;17.70;49.80;;;;;;5019485;28;19917;-59
2022/03/08 06:26:51;;;;;;;;;;;17.70;49.60;;;;;;5016952;28;20090;-60
2022/03/08 06:29:16;;;;;;;;;;;17.60;49.80;;;;;;5015100;28;20204;-57
2022/03/08 06:31:42;;;;;;;;;;;17.70;49.60;;;;;;5019226;28;19924;-51
2022/03/08 06:34:07;;;;;;;;;;;17.70;49.40;;;;;;5018515;28;19914;-58
2022/03/08 06:36:34;;;;;;;;;;;17.60;49.80;;;;;;5019087;28;19917;-53
2022/03/08 06:39:00;;;;;;;;;;;17.60;50.00;;;;;;5018688;28;19913;-59
2022/03/08 06:41:26;;;;;;;;;;;17.60;50.00;;;;;;5014780;28;19920;-58
2022/03/08 06:43:51;;;;;;;;;;;17.50;50.20;;;;;;5020055;28;19921;-52
2022/03/08 06:46:17;;;;;;;;;;;17.50;50.30;;;;;;5020263;28;19944;-58
2022/03/08 06:48:42;;;;;;;;;;;17.30;50.40;;;;;;5020643;28;19920;-51
2022/03/08 06:51:08;;;;;;;;;;;17.30;50.60;;;;;;5020256;28;20462;-58
2022/03/08 06:53:33;;;;;;;;;;;17.20;50.40;;;;;;5023570;28;19921;-52
2022/03/08 06:55:59;;;;;;;;;;;17.20;50.40;;;;;;5014693;28;19974;-48
2022/03/08 06:58:24;;;;;;;;;;;17.10;50.40;;;;;;5028811;28;20524;-57
2022/03/08 07:00:49;;;;;;;;;;;17.10;50.40;;;;;;5009453;28;19975;-56
2022/03/08 07:03:15;;;;;;;;;;;17.10;50.50;;;;;;5024570;28;20342;-49
2022/03/08 07:05:40;;;;;;;;;;;17.00;50.30;;;;;;5024384;28;19923;-52
2022/03/08 07:08:06;;;;;;;;;;;17.00;50.00;;;;;;5022817;28;19913;-53
2022/03/08 07:10:31;;;;;;;;;;;16.90;50.10;;;;;;5016525;28;20776;-51
2022/03/08 07:12:57;;;;;;;;;;;16.90;50.20;;;;;;5023824;28;19921;-54
2022/03/08 07:15:22;;;;;;;;;;;16.90;50.30;;;;;;5023279;28;19913;-58
2022/03/08 07:17:48;;;;;;;;;;;16.80;50.50;;;;;;5023627;28;19925;-52
2022/03/08 07:20:14;;;;;;;;;;;16.80;50.50;;;;;;5022298;28;19967;-54
2022/03/08 07:22:39;;;;;;;;;;;16.80;50.80;;;;;;5024256;28;19913;-58
2022/03/08 07:25:05;;;;;;;;;;;16.70;50.70;;;;;;5023468;28;19928;-56
2022/03/08 07:27:31;;;;;;;;;;;16.70;50.70;;;;;;5023403;28;20259;-52
2022/03/08 07:29:56;;;;;;;;;;;16.80;50.70;;;;;;5023313;28;20016;-52
2022/03/08 07:32:21;;;;;;;;;;;16.70;50.80;;;;;;5023596;28;20544;-58
2022/03/08 07:34:47;;;;;;;;;;;16.70;50.70;;;;;;5023372;28;19913;-59
2022/03/08 07:37:12;;;;;;;;;;;16.70;50.70;;;;;;5023681;28;19914;-50
2022/03/08 07:39:38;;;;;;;;;;;16.70;50.60;;;;;;5022952;28;20374;-59
2022/03/08 07:42:03;;;;;;;;;;;16.80;50.60;;;;;;5023244;28;19967;-55
2022/03/08 07:44:29;;;;;;;;;;;16.80;50.50;;;;;;5023367;28;20408;-56
2022/03/08 07:46:55;;;;;;;;;;;16.90;50.20;;;;;;5024005;28;20476;-56
2022/03/08 07:49:21;;;;;;;;;;;16.90;50.10;;;;;;5023707;28;19914;-52
2022/03/08 07:51:47;;;;;;;;;;;17.00;50.00;;;;;;5023050;28;19999;-57
2022/03/08 07:54:13;;;;;;;;;;;17.00;49.80;;;;;;5023977;28;19923;-56
2022/03/08 07:56:39;;;;;;;;;;;17.00;49.70;;;;;;5022841;28;19917;-55
2022/03/08 07:59:04;;;;;;;;;;;17.10;49.50;;;;;;5022777;28;19921;-55
2022/03/08 08:01:30;;;;;;;;;;;17.10;49.40;;;;;;5022870;28;20008;-53
2022/03/08 08:03:55;;;;;;;;;;;17.20;49.50;;;;;;5021542;28;20167;-56
2022/03/08 08:06:20;;;;;;;;;;;17.20;49.30;;;;;;5022614;28;19914;-53
2022/03/08 08:08:46;;;;;;;;;;;17.20;49.30;;;;;;5035730;28;19913;-56
2022/03/08 08:11:11;;;;;;;;;;;17.20;49.20;;;;;;5008727;28;20536;-59
2022/03/08 08:13:37;;;;;;;;;;;17.20;49.10;;;;;;5023283;28;19963;-50
2022/03/08 08:16:03;;;;;;;;;;;17.30;49.20;;;;;;5022759;28;19917;-57
2022/03/08 08:18:28;;;;;;;;;;;17.30;49.20;;;;;;5022843;28;19913;-53
2022/03/08 08:20:54;;;;;;;;;;;17.30;49.70;;;;;;5022954;28;19921;-51
2022/03/08 08:23:19;;;;;;;;;;;17.30;49.10;;;;;;5021907;28;20294;-53
2022/03/08 08:25:44;;;;;;;;;;;17.30;49.00;;;;;;5023204;28;19956;-57
2022/03/08 08:28:10;;;;;;;;;;;17.30;49.00;;;;;;5022165;28;19975;-52
2022/03/08 08:30:35;;;;;;;;;;;17.30;49.00;;;;;;5022592;28;20535;-54
2022/03/08 08:33:01;;;;;;;;;;;17.30;48.90;;;;;;5022921;28;19913;-56
2022/03/08 08:35:26;;;;;;;;;;;17.40;49.00;;;;;;5022741;28;19945;-56
2022/03/08 08:37:52;;;;;;;;;;;17.30;48.90;;;;;;5022809;28;20210;-52
2022/03/08 08:40:17;;;;;;;;;;;17.40;49.00;;;;;;5021581;28;19928;-52
2022/03/08 08:42:43;;;;;;;;;;;17.40;48.90;;;;;;5022972;28;20404;-58
2022/03/08 08:45:08;;;;;;;;;;;17.40;48.80;;;;;;5022450;28;19922;-50
2022/03/08 08:47:34;;;;;;;;;;;17.40;48.90;;;;;;5022302;28;20402;-52
2022/03/08 08:49:59;;;;;;;;;;;17.40;48.70;;;;;;5021657;28;19921;-58
2022/03/08 08:52:25;;;;;;;;;;;17.50;48.70;;;;;;5021846;28;19975;-54
2022/03/08 08:54:50;;;;;;;;;;;17.40;48.60;;;;;;5022227;28;19928;-59
2022/03/08 08:57:16;;;;;;;;;;;17.50;48.60;;;;;;5022008;28;20425;-57
2022/03/08 08:59:41;;;;;;;;;;;17.50;48.50;;;;;;5022527;28;19928;-51
2022/03/08 09:02:07;;;;;;;;;;;17.50;48.50;;;;;;5022412;28;20473;-54
2022/03/08 09:04:34;;;;;;;;;;;17.60;48.40;;;;;;5022321;28;19959;-53
2022/03/08 09:06:59;;;;;;;;;;;17.50;48.40;;;;;;5015183;28;19944;-55
2022/03/08 09:09:25;;;;;;;;;;;17.60;48.40;;;;;;5021684;28;20010;-52
2022/03/08 09:11:50;;;;;;;;;;;17.60;48.40;;;;;;5022646;28;19913;-52
2022/03/08 09:14:16;;;;;;;;;;;17.60;48.90;;;;;;5022900;28;19934;-57
2022/03/08 09:16:42;;;;;;;;;;;17.60;48.20;;;;;;5022173;28;19925;-53
2022/03/08 09:19:08;;;;;;;;;;;17.70;48.20;;;;;;5021313;28;20131;-51
2022/03/08 09:21:34;;;;;;;;;;;17.70;48.10;;;;;;5021424;28;19913;-55
2022/03/08 09:23:59;;;;;;;;;;;17.80;48.00;;;;;;5021813;28;19967;-53
2022/03/08 09:26:24;;;;;;;;;;;17.80;47.90;;;;;;5021691;28;19936;-57
2022/03/08 09:28:50;;;;;;;;;;;17.80;47.90;;;;;;5021028;28;19913;-56
2022/03/08 09:31:15;;;;;;;;;;;17.80;47.80;;;;;;5021764;28;19913;-53
2022/03/08 09:33:42;;;;;;;;;;;17.90;47.80;;;;;;5021998;28;19917;-60
2022/03/08 09:36:07;;;;;;;;;;;17.90;47.70;;;;;;5021362;28;20349;-57
2022/03/08 09:38:33;;;;;;;;;;;18.00;47.70;;;;;;5020609;28;19917;-58
2022/03/08 09:40:58;;;;;;;;;;;18.00;47.60;;;;;;5019690;28;20327;-54
2022/03/08 09:43:24;;;;;;;;;;;18.00;47.70;;;;;;5007771;28;19925;-52
2022/03/08 09:45:49;;;;;;;;;;;18.00;47.80;;;;;;5021162;28;19918;-55
2022/03/08 09:48:16;;;;;;;;;;;18.10;47.90;;;;;;5021729;28;19917;-52
2022/03/08 09:50:42;;;;;;;;;;;18.10;48.00;;;;;;5020217;28;19939;-53
2022/03/08 09:53:09;;;;;;;;;;;18.10;48.00;;;;;;5010765;28;19921;-56
2022/03/08 09:55:34;;;;;;;;;;;18.10;47.90;;;;;;5003343;28;19932;-54
2022/03/08 09:58:00;;;;;;;;;;;18.20;47.90;;;;;;5021388;28;19948;-56
2022/03/08 10:00:25;;;;;;;;;;;18.20;47.80;;;;;;5020995;28;19921;-54
2022/03/08 10:02:54;;;;;;;;;;;18.20;47.80;;;;;;5020908;28;20285;-55
2022/03/08 10:05:25;;;;;;;;;;;18.20;47.70;;;;;;5020874;28;20298;-57
2022/03/08 10:08:04;;;;;;;;;;;18.20;47.60;;;;;;5021517;28;19929;-52
2022/03/08 10:10:31;;;;;;;;;;;18.20;48.30;;;;;;5020374;28;19948;-57
2022/03/08 10:12:56;;;;;;;;;;;18.30;47.60;;;;;;5020822;28;19975;-57
2022/03/08 10:15:22;;;;;;;;;;;18.30;47.60;;;;;;5021300;28;19936;-60
2022/03/08 10:17:47;;;;;;;;;;;18.20;47.60;;;;;;5021775;28;19921;-56
2022/03/08 10:20:13;;;;;;;;;;;18.20;47.60;;;;;;5019867;28;19917;-49
2022/03/08 10:22:39;;;;;;;;;;;18.20;47.60;;;;;;5007822;28;20583;-58
2022/03/08 10:25:08;;;;;;;;;;;18.20;47.60;;;;;;5021098;28;21195;-56
2022/03/08 10:27:34;;;;;;;;;;;18.20;47.60;;;;;;5014635;28;20416;-53
2022/03/08 10:29:59;;;;;;;;;;;18.20;47.60;;;;;;5019932;28;19933;-57
2022/03/08 10:32:25;;;;;;;;;;;18.20;47.60;;;;;;5020505;28;19940;-55
2022/03/08 10:34:51;;;;;;;;;;;18.20;47.60;;;;;;5020143;28;19913;-57
2022/03/08 10:37:19;;;;;;;;;;;18.20;47.50;;;;;;5021002;28;19913;-55
2022/03/08 10:39:51;;;;;;;;;;;18.10;47.60;;;;;;5020477;28;19917;-57
2022/03/08 10:42:27;;;;;;;;;;;18.20;47.60;;;;;;5020802;28;19924;-56
2022/03/08 10:45:08;;;;;;;;;;;18.10;47.60;;;;;;5016125;28;19921;-60
2022/03/08 10:47:42;;;;;;;;;;;18.10;47.70;;;;;;5027030;28;19924;-60
2022/03/08 10:50:09;;;;;;;;;;;18.10;47.70;;;;;;5020032;28;19913;-52
2022/03/08 10:52:38;;;;;;;;;;;18.10;47.70;;;;;;5021655;28;20073;-51
2022/03/08 10:55:09;;;;;;;;;;;18.10;47.70;;;;;;5019227;28;19924;-55
2022/03/08 10:57:35;;;;;;;;;;;18.10;48.30;;;;;;5019303;28;19913;-51
2022/03/08 11:00:00;;;;;;;;;;;18.00;47.70;;;;;;5018841;28;19924;-52
2022/03/08 11:02:26;;;;;;;;;;;18.10;47.70;;;;;;5018930;28;19917;-55
2022/03/08 11:05:09;;;;;;;;;;;18.00;48.00;;;;;;5019538;28;19917;-59
2022/03/08 11:07:35;;;;;;;;;;;18.10;48.30;;;;;;5018118;28;20378;-53
2022/03/08 11:10:02;;;;;;;;;;;18.00;48.30;;;;;;5018592;28;19928;-53
2022/03/08 11:12:27;;;;;;;;;;;18.10;48.40;;;;;;5018418;28;19913;-58
2022/03/08 11:14:52;;;;;;;;;;;18.00;48.40;;;;;;5019703;28;19913;-59
2022/03/08 11:17:18;;;;;;;;;;;18.10;48.60;;;;;;5019511;28;19924;-57
2022/03/08 11:19:43;;;;;;;;;;;18.00;48.60;;;;;;5007625;28;20582;-57
2022/03/08 11:22:09;;;;;;;;;;;18.00;48.70;;;;;;5001469;28;19925;-54
2022/03/08 11:24:35;;;;;;;;;;;18.00;48.60;;;;;;5012810;28;19917;-55
2022/03/08 11:27:01;;;;;;;;;;;18.00;48.60;;;;;;5018940;28;19913;-53
2022/03/08 11:29:27;;;;;;;;;;;18.00;48.60;;;;;;5003628;28;20362;-57
2022/03/08 11:31:53;;;;;;;;;;;18.00;48.60;;;;;;5019811;28;19913;-55
2022/03/08 11:34:21;;;;;;;;;;;18.00;48.70;;;;;;5006022;28;19925;-54
2022/03/08 11:36:58;;;;;;;;;;;18.00;48.70;;;;;;5019368;28;19913;-59
2022/03/08 11:39:25;;;;;;;;;;;18.00;48.70;;;;;;5012245;28;19937;-55
2022/03/08 11:41:54;;;;;;;;;;;18.00;48.80;;;;;;5022943;28;20406;-53
2022/03/08 11:44:20;;;;;;;;;;;18.00;48.80;;;;;;5022696;28;20686;-52
2022/03/08 11:47:03;;;;;;;;;;;18.00;48.80;;;;;;5022578;28;20677;-51
2022/03/08 11:49:36;;;;;;;;;;;18.00;48.90;;;;;;5021893;28;19972;-54
2022/03/08 11:52:11;;;;;;;;;;;18.00;48.90;;;;;;5009667;28;19913;-52
2022/03/08 11:54:36;;;;;;;;;;;18.00;49.10;;;;;;5022221;28;19970;-53
2022/03/08 11:57:02;;;;;;;;;;;17.90;49.20;;;;;;5022576;28;19925;-59
2022/03/08 11:59:27;;;;;;;;;;;17.90;49.30;;;;;;5021357;28;19920;-55
2022/03/08 12:01:56;;;;;;;;;;;17.90;49.40;;;;;;5022385;28;19971;-52
2022/03/08 12:04:21;;;;;;;;;;;17.80;49.40;;;;;;5022423;28;20299;-55
2022/03/08 12:06:50;;;;;;;;;;;17.80;49.40;;;;;;5022039;28;19920;-54
2022/03/08 12:09:17;;;;;;;;;;;17.80;49.60;;;;;;5021553;28;19927;-57
2022/03/08 12:11:52;;;;;;;;;;;17.80;49.50;;;;;;5007067;28;19941;-56
2022/03/08 12:14:20;;;;;;;;;;;17.90;49.60;;;;;;5021844;28;19924;-48
2022/03/08 12:16:49;;;;;;;;;;;17.80;49.60;;;;;;5022127;28;20012;-56
2022/03/08 12:19:20;;;;;;;;;;;17.70;49.40;;;;;;5015818;28;19920;-52
2022/03/08 12:21:45;;;;;;;;;;;17.80;49.70;;;;;;5013017;28;19921;-53
2022/03/08 12:24:15;;;;;;;;;;;17.80;49.40;;;;;;5021402;28;19944;-55
2022/03/08 12:26:57;;;;;;;;;;;17.90;49.20;;;;;;5014842;28;20017;-57
2022/03/08 12:29:29;;;;;;;;;;;17.90;50.00;;;;;;5020284;28;21308;-59
2022/03/08 12:31:58;;;;;;;;;;;17.90;49.30;;;;;;5016063;28;19913;-56
2022/03/08 12:34:32;;;;;;;;;;;17.90;49.20;;;;;;5021836;28;19959;-51
2022/03/08 12:37:07;;;;;;;;;;;18.00;49.10;;;;;;5021464;28;19913;-54
2022/03/08 12:39:51;;;;;;;;;;;18.00;49.20;;;;;;5020078;28;19960;-55
2022/03/08 12:42:19;;;;;;;;;;;18.00;49.10;;;;;;5021412;28;20345;-54
2022/03/08 12:44:51;;;;;;;;;;;18.00;49.10;;;;;;5016381;22;19932;-52
2022/03/08 12:47:17;;;;;;;;;;;18.00;49.10;;;;;;5000411;28;20267;-56
2022/03/08 12:49:42;;;;;;;;;;;18.00;49.10;;;;;;5001319;28;19920;-53
2022/03/08 12:52:08;;;;;;;;;;;18.00;49.10;;;;;;5002862;28;19924;-55
2022/03/08 12:54:33;;;;;;;;;;;18.10;49.10;;;;;;5001858;28;20436;-52
2022/03/08 12:56:59;;;;;;;;;;;18.10;49.10;;;;;;5005246;28;19920;-53
2022/03/08 12:59:24;;;;;;;;;;;18.10;49.10;;;;;;4983025;28;20007;-55
2022/03/08 13:01:50;;;;;;;;;;;18.20;49.00;;;;;;5006627;28;19913;-55
2022/03/08 13:04:24;;;;;;;;;;;18.10;48.90;;;;;;4973997;28;20334;-52
2022/03/08 13:07:04;;;;;;;;;;;18.20;48.90;;;;;;5004285;28;19973;-52
2022/03/08 13:09:46;;;;;;;;;;;18.20;48.90;;;;;;5000307;28;19996;-53
2022/03/08 13:12:16;;;;;;;;;;;18.20;48.70;;;;;;5001005;28;20430;-53
2022/03/08 13:14:42;;;;;;;;;;;18.20;48.80;;;;;;5000990;28;19924;-52
2022/03/08 13:17:07;;;;;;;;;;;18.30;48.70;;;;;;5000204;28;19914;-55
2022/03/08 13:19:39;;;;;;;;;;;18.30;49.30;;;;;;5000147;28;20199;-52
2022/03/08 13:22:04;;;;;;;;;;;18.30;48.70;;;;;;5005971;28;19913;-55
2022/03/08 13:24:29;;;;;;;;;;;18.30;48.60;;;;;;5000804;28;19921;-54
2022/03/08 13:27:02;;;;;;;;;;;18.30;48.60;;;;;;5000900;28;19917;-54
2022/03/08 13:29:28;;;;;;;;;;;18.40;48.60;;;;;;4999664;28;19921;-51
2022/03/08 13:31:53;;;;;;;;;;;18.40;48.50;;;;;;4997379;28;20590;-57
2022/03/08 13:34:19;;;;;;;;;;;18.50;48.40;;;;;;4983832;28;19918;-53
2022/03/08 13:36:57;;;;;;;;;;;18.50;48.40;;;;;;5000273;28;19919;-51
2022/03/08 13:39:22;;;;;;;;;;;18.50;48.40;;;;;;4982401;28;20159;-52
2022/03/08 13:41:48;;;;;;;;;;;18.50;48.40;;;;;;5000763;28;20367;-55
2022/03/08 13:44:14;;;;;;;;;;;18.50;48.30;;;;;;5000169;28;20083;-54
2022/03/08 13:46:40;;;;;;;;;;;18.50;48.40;;;;;;4986534;28;19913;-54
2022/03/08 13:49:05;;;;;;;;;;;18.50;48.30;;;;;;4999919;28;20040;-52
2022/03/08 13:51:32;;;;;;;;;;;18.50;48.30;;;;;;5000236;28;19933;-52
2022/03/08 13:53:58;;;;;;;;;;;18.50;48.30;;;;;;5000323;28;19918;-52
2022/03/08 13:56:23;;;;;;;;;;;18.60;48.30;;;;;;4984534;28;19921;-52
2022/03/08 13:58:54;;;;;;;;;;;18.60;48.20;;;;;;4999660;28;20091;-52
2022/03/08 14:01:26;;;;;;;;;;;18.60;48.30;;;;;;5002408;28;19971;-53
2022/03/08 14:03:52;;;;;;;;;;;18.60;48.30;;;;;;5000056;28;20375;-56
2022/03/08 14:06:22;;;;;;;;;;;18.60;48.20;;;;;;4999918;28;20032;-54
2022/03/08 14:08:48;;;;;;;;;;;18.60;48.20;;;;;;4981749;28;20566;-55
2022/03/08 14:11:14;;;;;;;;;;;18.60;48.20;;;;;;4982400;28;19928;-55